Terminal Aerodrome Forecast
Issued by NWS

Home | Current Version | Previous Version | Text Only | Print | Product List | Glossary On
Versions: 1 2 3 4 5 6 7 8 9 10 11 12 13 14 15 16 17 18 19 20 21 22 23 24 25 26 27 28 29 30 31 32 33 34
000
FTAK31 PAFA 041122
TAFASC
TAF
PASC 041122Z 0412/0512 27011KT 1/4SM FZFG VV003
      TEMPO 0412/0415 1SM BR
     FM041800 28010KT 3SM BR OVC012
     FM042000 29008KT P6SM OVC015
     FM051000 29008KT 1/4SM FZFG OVC003=

USA.gov is the U.S. government's official web portal to all federal, state and local government web resources and services.